sensor_id;sensor_type;location;lat;lon;timestamp;P1;durP1;ratioP1;P2;durP2;ratioP2
21448;SDS011;10885;52.830;13.788;2024-02-26T04:43:09;1.15;;;1.08;;
21448;SDS011;10885;52.830;13.788;2024-02-26T04:48:12;1.45;;;1.00;;
21448;SDS011;10885;52.830;13.788;2024-02-26T04:53:15;0.85;;;0.80;;
21448;SDS011;10885;52.830;13.788;2024-02-26T04:58:17;0.82;;;0.80;;
21448;SDS011;10885;52.830;13.788;2024-02-26T05:03:20;1.58;;;0.90;;
21448;SDS011;10885;52.830;13.788;2024-02-26T05:08:23;1.45;;;1.00;;
21448;SDS011;10885;52.830;13.788;2024-02-26T05:13:26;0.70;;;0.70;;
21448;SDS011;10885;52.830;13.788;2024-02-26T05:18:28;1.38;;;0.98;;
21448;SDS011;10885;52.830;13.788;2024-02-26T05:23:31;2.15;;;1.05;;
21448;SDS011;10885;52.830;13.788;2024-02-26T05:28:34;0.88;;;0.88;;
21448;SDS011;10885;52.830;13.788;2024-02-26T05:33:36;0.80;;;0.80;;
21448;SDS011;10885;52.830;13.788;2024-02-26T05:38:39;1.05;;;1.00;;
21448;SDS011;10885;52.830;13.788;2024-02-26T05:43:42;1.10;;;0.88;;
21448;SDS011;10885;52.830;13.788;2024-02-26T05:48:49;0.85;;;0.85;;
21448;SDS011;10885;52.830;13.788;2024-02-26T05:53:53;1.67;;;1.00;;
21448;SDS011;10885;52.830;13.788;2024-02-26T05:58:57;1.23;;;0.95;;
21448;SDS011;10885;52.830;13.788;2024-02-26T06:03:59;0.73;;;0.73;;
21448;SDS011;10885;52.830;13.788;2024-02-26T06:09:02;1.05;;;0.90;;
21448;SDS011;10885;52.830;13.788;2024-02-26T06:14:07;1.73;;;0.93;;
21448;SDS011;10885;52.830;13.788;2024-02-26T06:19:10;0.90;;;0.90;;
21448;SDS011;10885;52.830;13.788;2024-02-26T06:24:15;1.30;;;0.90;;
21448;SDS011;10885;52.830;13.788;2024-02-26T06:29:17;1.38;;;1.13;;
21448;SDS011;10885;52.830;13.788;2024-02-26T06:34:20;1.02;;;0.95;;
21448;SDS011;10885;52.830;13.788;2024-02-26T06:39:23;1.55;;;0.90;;
21448;SDS011;10885;52.830;13.788;2024-02-26T06:44:26;1.38;;;1.00;;
21448;SDS011;10885;52.830;13.788;2024-02-26T06:49:33;0.88;;;0.88;;
21448;SDS011;10885;52.830;13.788;2024-02-26T06:54:36;1.17;;;1.02;;
21448;SDS011;10885;52.830;13.788;2024-02-26T06:59:39;1.88;;;1.10;;
21448;SDS011;10885;52.830;13.788;2024-02-26T07:04:42;2.22;;;1.00;;
21448;SDS011;10885;52.830;13.788;2024-02-26T07:09:45;1.90;;;1.20;;
21448;SDS011;10885;52.830;13.788;2024-02-26T07:14:48;1.63;;;1.20;;
21448;SDS011;10885;52.830;13.788;2024-02-26T07:19:51;1.10;;;1.10;;
21448;SDS011;10885;52.830;13.788;2024-02-26T07:24:55;1.65;;;1.30;;
21448;SDS011;10885;52.830;13.788;2024-02-26T07:29:57;1.98;;;1.13;;
21448;SDS011;10885;52.830;13.788;2024-02-26T07:35:00;1.95;;;1.40;;
21448;SDS011;10885;52.830;13.788;2024-02-26T07:40:03;2.03;;;1.73;;
21448;SDS011;10885;52.830;13.788;2024-02-26T07:45:06;1.83;;;1.67;;
21448;SDS011;10885;52.830;13.788;2024-02-26T07:50:09;2.67;;;1.55;;
21448;SDS011;10885;52.830;13.788;2024-02-26T07:55:11;2.15;;;1.70;;
21448;SDS011;10885;52.830;13.788;2024-02-26T08:00:14;2.17;;;1.70;;
21448;SDS011;10885;52.830;13.788;2024-02-26T08:05:19;2.45;;;2.03;;
21448;SDS011;10885;52.830;13.788;2024-02-26T08:10:22;2.85;;;2.28;;
21448;SDS011;10885;52.830;13.788;2024-02-26T08:15:25;2.03;;;1.65;;
21448;SDS011;10885;52.830;13.788;2024-02-26T08:20:28;2.95;;;2.03;;
21448;SDS011;10885;52.830;13.788;2024-02-26T08:25:30;5.80;;;4.20;;
21448;SDS011;10885;52.830;13.788;2024-02-26T08:30:33;9.52;;;6.13;;
21448;SDS011;10885;52.830;13.788;2024-02-26T08:35:36;8.07;;;5.28;;
21448;SDS011;10885;52.830;13.788;2024-02-26T08:40:39;9.23;;;5.85;;
21448;SDS011;10885;52.830;13.788;2024-02-26T08:45:42;10.50;;;6.47;;
21448;SDS011;10885;52.830;13.788;2024-02-26T08:50:44;11.00;;;6.70;;
21448;SDS011;10885;52.830;13.788;2024-02-26T08:55:47;10.73;;;6.72;;
21448;SDS011;10885;52.830;13.788;2024-02-26T09:00:50;10.68;;;7.35;;
21448;SDS011;10885;52.830;13.788;2024-02-26T09:05:53;12.57;;;8.63;;
21448;SDS011;10885;52.830;13.788;2024-02-26T09:10:55;15.50;;;9.45;;
21448;SDS011;10885;52.830;13.788;2024-02-26T09:15:58;15.70;;;10.00;;
21448;SDS011;10885;52.830;13.788;2024-02-26T09:21:04;14.65;;;9.95;;
21448;SDS011;10885;52.830;13.788;2024-02-26T09:26:08;16.13;;;9.05;;
21448;SDS011;10885;52.830;13.788;2024-02-26T09:31:11;17.30;;;9.90;;
21448;SDS011;10885;52.830;13.788;2024-02-26T09:36:13;14.88;;;9.20;;
21448;SDS011;10885;52.830;13.788;2024-02-26T09:41:16;13.90;;;8.65;;
21448;SDS011;10885;52.830;13.788;2024-02-26T09:46:19;14.57;;;10.25;;
21448;SDS011;10885;52.830;13.788;2024-02-26T09:51:23;15.32;;;9.57;;
21448;SDS011;10885;52.830;13.788;2024-02-26T09:56:29;12.70;;;9.70;;
21448;SDS011;10885;52.830;13.788;2024-02-26T10:01:33;14.00;;;9.30;;
21448;SDS011;10885;52.830;13.788;2024-02-26T10:06:37;13.48;;;8.98;;
21448;SDS011;10885;52.830;13.788;2024-02-26T10:11:40;13.50;;;9.63;;
21448;SDS011;10885;52.830;13.788;2024-02-26T10:16:45;14.45;;;9.75;;
21448;SDS011;10885;52.830;13.788;2024-02-26T10:21:48;14.15;;;9.40;;
21448;SDS011;10885;52.830;13.788;2024-02-26T10:26:54;12.65;;;8.15;;
21448;SDS011;10885;52.830;13.788;2024-02-26T10:31:57;11.85;;;8.07;;
21448;SDS011;10885;52.830;13.788;2024-02-26T10:37:01;10.60;;;6.97;;
21448;SDS011;10885;52.830;13.788;2024-02-26T10:42:04;10.70;;;7.22;;
21448;SDS011;10885;52.830;13.788;2024-02-26T10:47:12;11.02;;;7.88;;
21448;SDS011;10885;52.830;13.788;2024-02-26T10:52:15;9.27;;;6.50;;
21448;SDS011;10885;52.830;13.788;2024-02-26T10:57:19;11.05;;;7.45;;
21448;SDS011;10885;52.830;13.788;2024-02-26T11:02:23;7.88;;;6.03;;
21448;SDS011;10885;52.830;13.788;2024-02-26T11:07:26;10.98;;;8.02;;
21448;SDS011;10885;52.830;13.788;2024-02-26T11:12:32;8.52;;;6.20;;
21448;SDS011;10885;52.830;13.788;2024-02-26T11:17:38;10.73;;;6.95;;
21448;SDS011;10885;52.830;13.788;2024-02-26T11:22:41;9.43;;;6.82;;
21448;SDS011;10885;52.830;13.788;2024-02-26T11:27:58;9.60;;;6.55;;
21448;SDS011;10885;52.830;13.788;2024-02-26T11:33:06;8.45;;;5.30;;
21448;SDS011;10885;52.830;13.788;2024-02-26T11:38:16;9.52;;;5.72;;
21448;SDS011;10885;52.830;13.788;2024-02-26T11:48:58;7.85;;;5.50;;
21448;SDS011;10885;52.830;13.788;2024-02-26T11:54:02;8.45;;;5.82;;
21448;SDS011;10885;52.830;13.788;2024-02-26T11:59:09;6.82;;;5.40;;
21448;SDS011;10885;52.830;13.788;2024-02-26T12:04:14;8.50;;;5.43;;
21448;SDS011;10885;52.830;13.788;2024-02-26T12:14:34;6.38;;;4.60;;
21448;SDS011;10885;52.830;13.788;2024-02-26T12:19:40;6.00;;;4.45;;
21448;SDS011;10885;52.830;13.788;2024-02-26T12:24:45;9.80;;;5.03;;
21448;SDS011;10885;52.830;13.788;2024-02-26T12:29:48;6.47;;;4.75;;
21448;SDS011;10885;52.830;13.788;2024-02-26T12:34:50;10.13;;;5.45;;
21448;SDS011;10885;52.830;13.788;2024-02-26T12:39:53;5.80;;;4.63;;
21448;SDS011;10885;52.830;13.788;2024-02-26T12:44:56;7.55;;;5.07;;
21448;SDS011;10885;52.830;13.788;2024-02-26T12:49:59;7.15;;;5.22;;
21448;SDS011;10885;52.830;13.788;2024-02-26T12:55:02;5.07;;;4.28;;
21448;SDS011;10885;52.830;13.788;2024-02-26T13:00:05;5.88;;;4.50;;
21448;SDS011;10885;52.830;13.788;2024-02-26T13:05:13;8.63;;;4.15;;
21448;SDS011;10885;52.830;13.788;2024-02-26T13:10:17;5.95;;;4.28;;
21448;SDS011;10885;52.830;13.788;2024-02-26T13:15:21;4.93;;;3.70;;
21448;SDS011;10885;52.830;13.788;2024-02-26T13:20:30;4.85;;;3.70;;
21448;SDS011;10885;52.830;13.788;2024-02-26T13:25:34;6.40;;;4.57;;
21448;SDS011;10885;52.830;13.788;2024-02-26T13:30:38;4.80;;;3.78;;
21448;SDS011;10885;52.830;13.788;2024-02-26T13:35:41;5.47;;;3.80;;
21448;SDS011;10885;52.830;13.788;2024-02-26T13:40:43;6.70;;;4.38;;
21448;SDS011;10885;52.830;13.788;2024-02-26T13:45:46;7.55;;;4.45;;
21448;SDS011;10885;52.830;13.788;2024-02-26T13:50:49;6.13;;;4.43;;
21448;SDS011;10885;52.830;13.788;2024-02-26T13:55:52;5.22;;;4.05;;
21448;SDS011;10885;52.830;13.788;2024-02-26T14:00:54;6.82;;;4.25;;
21448;SDS011;10885;52.830;13.788;2024-02-26T14:05:57;6.75;;;4.15;;
21448;SDS011;10885;52.830;13.788;2024-02-26T14:11:00;5.30;;;4.05;;
21448;SDS011;10885;52.830;13.788;2024-02-26T14:16:04;8.05;;;5.60;;
21448;SDS011;10885;52.830;13.788;2024-02-26T14:21:06;6.45;;;4.90;;
21448;SDS011;10885;52.830;13.788;2024-02-26T14:26:09;7.32;;;5.30;;
21448;SDS011;10885;52.830;13.788;2024-02-26T14:31:12;8.65;;;5.28;;
21448;SDS011;10885;52.830;13.788;2024-02-26T14:36:14;7.25;;;5.13;;
21448;SDS011;10885;52.830;13.788;2024-02-26T14:41:17;8.27;;;5.28;;
21448;SDS011;10885;52.830;13.788;2024-02-26T14:46:20;7.68;;;5.10;;
21448;SDS011;10885;52.830;13.788;2024-02-26T14:51:22;8.45;;;5.80;;
21448;SDS011;10885;52.830;13.788;2024-02-26T14:56:25;9.55;;;6.32;;
21448;SDS011;10885;52.830;13.788;2024-02-26T15:01:28;14.40;;;9.30;;
21448;SDS011;10885;52.830;13.788;2024-02-26T15:06:30;9.05;;;6.10;;
21448;SDS011;10885;52.830;13.788;2024-02-26T15:11:33;8.82;;;5.93;;
21448;SDS011;10885;52.830;13.788;2024-02-26T15:16:40;8.68;;;5.97;;
21448;SDS011;10885;52.830;13.788;2024-02-26T15:21:43;7.53;;;5.35;;
21448;SDS011;10885;52.830;13.788;2024-02-26T15:26:49;7.97;;;5.18;;
21448;SDS011;10885;52.830;13.788;2024-02-26T15:31:52;7.05;;;4.88;;
21448;SDS011;10885;52.830;13.788;2024-02-26T15:36:54;7.50;;;5.25;;
21448;SDS011;10885;52.830;13.788;2024-02-26T15:41:57;8.82;;;4.93;;
21448;SDS011;10885;52.830;13.788;2024-02-26T15:46:59;12.68;;;6.72;;
21448;SDS011;10885;52.830;13.788;2024-02-26T15:52:02;13.07;;;7.00;;
21448;SDS011;10885;52.830;13.788;2024-02-26T15:57:06;19.10;;;8.55;;
21448;SDS011;10885;52.830;13.788;2024-02-26T16:02:11;25.67;;;11.20;;
21448;SDS011;10885;52.830;13.788;2024-02-26T16:07:17;24.10;;;9.70;;
21448;SDS011;10885;52.830;13.788;2024-02-26T16:12:35;17.88;;;8.50;;
21448;SDS011;10885;52.830;13.788;2024-02-26T16:17:43;18.08;;;8.70;;
21448;SDS011;10885;52.830;13.788;2024-02-26T16:22:50;20.57;;;8.67;;
21448;SDS011;10885;52.830;13.788;2024-02-26T16:27:53;11.63;;;6.43;;
21448;SDS011;10885;52.830;13.788;2024-02-26T16:32:56;16.33;;;7.75;;
21448;SDS011;10885;52.830;13.788;2024-02-26T16:37:59;11.07;;;6.25;;
21448;SDS011;10885;52.830;13.788;2024-02-26T16:43:04;10.23;;;6.28;;
21448;SDS011;10885;52.830;13.788;2024-02-26T16:48:08;11.15;;;5.57;;
21448;SDS011;10885;52.830;13.788;2024-02-26T16:53:11;13.48;;;7.35;;
21448;SDS011;10885;52.830;13.788;2024-02-26T16:58:13;11.43;;;6.05;;
21448;SDS011;10885;52.830;13.788;2024-02-26T17:03:16;9.85;;;6.75;;
21448;SDS011;10885;52.830;13.788;2024-02-26T17:08:19;7.30;;;5.35;;
21448;SDS011;10885;52.830;13.788;2024-02-26T17:13:21;10.52;;;6.55;;
21448;SDS011;10885;52.830;13.788;2024-02-26T17:18:28;8.57;;;5.32;;
21448;SDS011;10885;52.830;13.788;2024-02-26T17:23:31;6.45;;;4.38;;
21448;SDS011;10885;52.830;13.788;2024-02-26T17:28:36;7.65;;;4.72;;
21448;SDS011;10885;52.830;13.788;2024-02-26T17:33:42;9.30;;;5.35;;
21448;SDS011;10885;52.830;13.788;2024-02-26T17:38:45;6.38;;;4.78;;
21448;SDS011;10885;52.830;13.788;2024-02-26T17:43:50;9.02;;;4.93;;
21448;SDS011;10885;52.830;13.788;2024-02-26T17:48:53;10.02;;;5.38;;
21448;SDS011;10885;52.830;13.788;2024-02-26T17:53:56;6.95;;;4.32;;
21448;SDS011;10885;52.830;13.788;2024-02-26T17:58:59;8.20;;;4.43;;
21448;SDS011;10885;52.830;13.788;2024-02-26T18:04:01;8.02;;;4.15;;
21448;SDS011;10885;52.830;13.788;2024-02-26T18:09:04;5.82;;;2.67;;
21448;SDS011;10885;52.830;13.788;2024-02-26T18:14:09;4.18;;;3.33;;
21448;SDS011;10885;52.830;13.788;2024-02-26T18:19:11;6.18;;;3.92;;
21448;SDS011;10885;52.830;13.788;2024-02-26T18:24:14;7.15;;;4.10;;
21448;SDS011;10885;52.830;13.788;2024-02-26T18:29:17;5.10;;;3.13;;
21448;SDS011;10885;52.830;13.788;2024-02-26T18:34:19;5.45;;;3.60;;
21448;SDS011;10885;52.830;13.788;2024-02-26T18:39:22;5.05;;;3.45;;
21448;SDS011;10885;52.830;13.788;2024-02-26T18:44:25;6.15;;;3.50;;
21448;SDS011;10885;52.830;13.788;2024-02-26T18:49:29;4.32;;;3.33;;
21448;SDS011;10885;52.830;13.788;2024-02-26T18:54:34;5.43;;;3.47;;
21448;SDS011;10885;52.830;13.788;2024-02-26T18:59:38;4.45;;;2.83;;
21448;SDS011;10885;52.830;13.788;2024-02-26T19:04:41;4.07;;;2.85;;
21448;SDS011;10885;52.830;13.788;2024-02-26T19:09:46;4.72;;;2.80;;
21448;SDS011;10885;52.830;13.788;2024-02-26T19:14:48;4.70;;;2.80;;
21448;SDS011;10885;52.830;13.788;2024-02-26T19:19:51;5.82;;;2.85;;
21448;SDS011;10885;52.830;13.788;2024-02-26T19:24:54;4.45;;;3.13;;
21448;SDS011;10885;52.830;13.788;2024-02-26T19:29:56;4.00;;;2.63;;
21448;SDS011;10885;52.830;13.788;2024-02-26T19:34:59;5.53;;;2.83;;
21448;SDS011;10885;52.830;13.788;2024-02-26T19:40:03;4.68;;;3.20;;
21448;SDS011;10885;52.830;13.788;2024-02-26T19:45:06;4.78;;;2.83;;
21448;SDS011;10885;52.830;13.788;2024-02-26T19:50:11;7.00;;;3.85;;
21448;SDS011;10885;52.830;13.788;2024-02-26T19:55:14;4.75;;;3.33;;
21448;SDS011;10885;52.830;13.788;2024-02-26T20:00:17;5.32;;;3.50;;
21448;SDS011;10885;52.830;13.788;2024-02-26T20:05:20;5.65;;;3.55;;
21448;SDS011;10885;52.830;13.788;2024-02-26T20:10:23;4.95;;;3.00;;
21448;SDS011;10885;52.830;13.788;2024-02-26T20:15:26;4.63;;;3.25;;
21448;SDS011;10885;52.830;13.788;2024-02-26T20:20:28;6.00;;;3.95;;
21448;SDS011;10885;52.830;13.788;2024-02-26T20:25:31;6.18;;;3.83;;
21448;SDS011;10885;52.830;13.788;2024-02-26T20:30:34;4.07;;;2.70;;
21448;SDS011;10885;52.830;13.788;2024-02-26T20:35:37;5.30;;;3.67;;
21448;SDS011;10885;52.830;13.788;2024-02-26T20:40:39;5.35;;;3.33;;
21448;SDS011;10885;52.830;13.788;2024-02-26T20:45:43;5.90;;;4.35;;
21448;SDS011;10885;52.830;13.788;2024-02-26T20:50:51;5.60;;;4.20;;
21448;SDS011;10885;52.830;13.788;2024-02-26T20:55:54;4.38;;;2.90;;
21448;SDS011;10885;52.830;13.788;2024-02-26T21:00:57;5.55;;;3.20;;
21448;SDS011;10885;52.830;13.788;2024-02-26T21:06:01;4.95;;;3.08;;
21448;SDS011;10885;52.830;13.788;2024-02-26T21:11:06;3.03;;;2.65;;
21448;SDS011;10885;52.830;13.788;2024-02-26T21:16:09;2.85;;;2.10;;
21448;SDS011;10885;52.830;13.788;2024-02-26T21:21:11;5.28;;;4.07;;
21448;SDS011;10885;52.830;13.788;2024-02-26T21:26:15;3.80;;;2.92;;
21448;SDS011;10885;52.830;13.788;2024-02-26T21:31:17;3.53;;;2.47;;
21448;SDS011;10885;52.830;13.788;2024-02-26T21:36:21;5.82;;;3.90;;
21448;SDS011;10885;52.830;13.788;2024-02-26T21:41:26;6.57;;;4.07;;
21448;SDS011;10885;52.830;13.788;2024-02-26T21:46:29;10.65;;;5.60;;
21448;SDS011;10885;52.830;13.788;2024-02-26T21:51:32;7.53;;;3.97;;
21448;SDS011;10885;52.830;13.788;2024-02-26T21:56:35;6.50;;;3.22;;
21448;SDS011;10885;52.830;13.788;2024-02-26T22:01:37;3.95;;;2.83;;
21448;SDS011;10885;52.830;13.788;2024-02-26T22:06:40;5.07;;;3.17;;
21448;SDS011;10885;52.830;13.788;2024-02-26T22:11:45;3.88;;;2.70;;
21448;SDS011;10885;52.830;13.788;2024-02-26T22:16:50;4.22;;;2.83;;
21448;SDS011;10885;52.830;13.788;2024-02-26T22:21:52;3.30;;;2.53;;
21448;SDS011;10885;52.830;13.788;2024-02-26T22:26:55;5.00;;;3.08;;
